sensor_id;sensor_type;location;lat;lon;timestamp;pressure;altitude;pressure_sealevel;temperature;humidity
70046;BME280;57385;41.832;23.494;2022-08-14T00:00:00;90619.78;;;16.16;76.71
70046;BME280;57385;41.832;23.494;2022-08-14T00:00:20;90604.53;;;16.14;76.53
70046;BME280;57385;41.832;23.494;2022-08-14T00:00:40;90593.94;;;16.11;76.60
70046;BME280;57385;41.832;23.494;2022-08-14T00:01:00;90605.03;;;16.21;76.71
70046;BME280;57385;41.832;23.494;2022-08-14T00:01:19;90605.56;;;16.18;76.03
70046;BME280;57385;41.832;23.494;2022-08-14T00:01:39;90607.88;;;16.20;76.14
70046;BME280;57385;41.832;23.494;2022-08-14T00:01:59;90596.78;;;16.14;76.10
70046;BME280;57385;41.832;23.494;2022-08-14T00:02:19;90601.94;;;16.19;76.24
70046;BME280;57385;41.832;23.494;2022-08-14T00:02:39;90603.44;;;16.25;76.18
70046;BME280;57385;41.832;23.494;2022-08-14T00:02:59;90604.75;;;16.23;76.42
70046;BME280;57385;41.832;23.494;2022-08-14T00:03:23;90596.50;;;16.21;76.02
70046;BME280;57385;41.832;23.494;2022-08-14T00:03:43;90602.41;;;16.26;75.99
70046;BME280;57385;41.832;23.494;2022-08-14T00:04:03;90601.91;;;16.24;75.72
70046;BME280;57385;41.832;23.494;2022-08-14T00:04:22;90601.38;;;16.27;75.71
70046;BME280;57385;41.832;23.494;2022-08-14T00:04:42;90603.44;;;16.25;75.94
70046;BME280;57385;41.832;23.494;2022-08-14T00:05:02;90602.63;;;16.30;75.82
70046;BME280;57385;41.832;23.494;2022-08-14T00:05:22;90587.69;;;16.22;75.79
70046;BME280;57385;41.832;23.494;2022-08-14T00:05:41;90593.09;;;16.25;75.67
70046;BME280;57385;41.832;23.494;2022-08-14T00:06:02;90603.41;;;16.30;75.61
70046;BME280;57385;41.832;23.494;2022-08-14T00:06:21;90588.72;;;16.21;75.71
70046;BME280;57385;41.832;23.494;2022-08-14T00:06:41;90591.56;;;16.24;75.38
70046;BME280;57385;41.832;23.494;2022-08-14T00:07:01;90595.69;;;16.25;75.57
70046;BME280;57385;41.832;23.494;2022-08-14T00:07:20;90589.50;;;16.21;75.71
70046;BME280;57385;41.832;23.494;2022-08-14T00:07:40;90591.56;;;16.24;75.77
70046;BME280;57385;41.832;23.494;2022-08-14T00:07:59;90596.69;;;16.29;75.88
70046;BME280;57385;41.832;23.494;2022-08-14T00:08:19;90591.78;;;16.28;75.64
70046;BME280;57385;41.832;23.494;2022-08-14T00:08:38;90594.88;;;16.30;75.48
70046;BME280;57385;41.832;23.494;2022-08-14T00:08:58;90597.47;;;16.30;75.57
70046;BME280;57385;41.832;23.494;2022-08-14T00:09:17;90584.06;;;16.23;75.55
70046;BME280;57385;41.832;23.494;2022-08-14T00:09:37;90590.75;;;16.29;75.65
70046;BME280;57385;41.832;23.494;2022-08-14T00:09:56;90590.75;;;16.29;75.53
70046;BME280;57385;41.832;23.494;2022-08-14T00:10:19;90596.19;;;16.33;75.76
70046;BME280;57385;41.832;23.494;2022-08-14T00:10:38;90597.22;;;16.32;75.53
70046;BME280;57385;41.832;23.494;2022-08-14T00:10:58;90591.78;;;16.28;75.62
70046;BME280;57385;41.832;23.494;2022-08-14T00:11:17;90601.09;;;16.34;75.69
70046;BME280;57385;41.832;23.494;2022-08-14T00:11:37;90581.97;;;16.25;75.64
70046;BME280;57385;41.832;23.494;2022-08-14T00:11:57;90589.47;;;16.32;75.51
70046;BME280;57385;41.832;23.494;2022-08-14T00:12:16;90577.31;;;16.27;75.44
70046;BME280;57385;41.832;23.494;2022-08-14T00:12:38;90588.44;;;16.27;75.62
70046;BME280;57385;41.832;23.494;2022-08-14T00:12:58;90573.72;;;16.23;75.81
70046;BME280;57385;41.832;23.494;2022-08-14T00:13:18;90588.69;;;16.31;75.35
70046;BME280;57385;41.832;23.494;2022-08-14T00:13:38;90577.84;;;16.24;75.34
70046;BME280;57385;41.832;23.494;2022-08-14T00:13:59;90588.41;;;16.33;75.62
70046;BME280;57385;41.832;23.494;2022-08-14T00:14:19;90575.22;;;16.29;75.61
70046;BME280;57385;41.832;23.494;2022-08-14T00:14:38;90587.13;;;16.30;75.57
70046;BME280;57385;41.832;23.494;2022-08-14T00:14:58;90577.06;;;16.23;75.56
70046;BME280;57385;41.832;23.494;2022-08-14T00:15:44;90581.94;;;16.35;75.52
70046;BME280;57385;41.832;23.494;2022-08-14T00:16:04;90581.16;;;16.29;75.36
70046;BME280;57385;41.832;23.494;2022-08-14T00:16:24;90569.81;;;16.25;75.51
70046;BME280;57385;41.832;23.494;2022-08-14T00:16:43;90591.25;;;16.36;75.51
70046;BME280;57385;41.832;23.494;2022-08-14T00:17:03;90574.44;;;16.28;75.49
70046;BME280;57385;41.832;23.494;2022-08-14T00:17:23;90580.41;;;16.29;75.21
70046;BME280;57385;41.832;23.494;2022-08-14T00:17:44;90581.94;;;16.35;75.50
70046;BME280;57385;41.832;23.494;2022-08-14T00:18:06;90578.56;;;16.29;75.67
70046;BME280;57385;41.832;23.494;2022-08-14T00:18:27;90575.22;;;16.29;75.11
70046;BME280;57385;41.832;23.494;2022-08-14T00:18:46;90572.13;;;16.27;75.44
70046;BME280;57385;41.832;23.494;2022-08-14T00:19:06;90581.94;;;16.35;75.44
70046;BME280;57385;41.832;23.494;2022-08-14T00:19:26;90574.19;;;16.30;75.50
70046;BME280;57385;41.832;23.494;2022-08-14T00:19:45;90585.06;;;16.32;75.64
70046;BME280;57385;41.832;23.494;2022-08-14T00:20:06;90583.50;;;16.31;75.74
70046;BME280;57385;41.832;23.494;2022-08-14T00:20:29;90582.47;;;16.32;75.53
70046;BME280;57385;41.832;23.494;2022-08-14T00:20:50;90586.06;;;16.36;75.63
70046;BME280;57385;41.832;23.494;2022-08-14T00:21:10;90577.28;;;16.32;75.55
70046;BME280;57385;41.832;23.494;2022-08-14T00:21:29;90586.59;;;16.33;75.52
70046;BME280;57385;41.832;23.494;2022-08-14T00:21:50;90568.28;;;16.24;75.46
70046;BME280;57385;41.832;23.494;2022-08-14T00:22:09;90569.28;;;16.28;75.37
70046;BME280;57385;41.832;23.494;2022-08-14T00:22:29;90568.00;;;16.26;75.47
70046;BME280;57385;41.832;23.494;2022-08-14T00:22:48;90571.09;;;16.28;75.40
70046;BME280;57385;41.832;23.494;2022-08-14T00:23:09;90581.94;;;16.35;75.44
70046;BME280;57385;41.832;23.494;2022-08-14T00:23:30;90575.47;;;16.33;75.37
70046;BME280;57385;41.832;23.494;2022-08-14T00:23:49;90570.56;;;16.31;75.60
70046;BME280;57385;41.832;23.494;2022-08-14T00:24:09;90576.47;;;16.37;75.58
70046;BME280;57385;41.832;23.494;2022-08-14T00:24:28;90559.72;;;16.24;75.48
70046;BME280;57385;41.832;23.494;2022-08-14T00:24:47;90576.75;;;16.30;75.55
70046;BME280;57385;41.832;23.494;2022-08-14T00:25:08;90576.75;;;16.35;75.40
70046;BME280;57385;41.832;23.494;2022-08-14T00:25:27;90578.56;;;16.35;75.57
70046;BME280;57385;41.832;23.494;2022-08-14T00:25:50;90585.00;;;16.37;75.50
70046;BME280;57385;41.832;23.494;2022-08-14T00:26:10;90570.81;;;16.29;75.42
70046;BME280;57385;41.832;23.494;2022-08-14T00:26:30;90572.34;;;16.30;75.46
70046;BME280;57385;41.832;23.494;2022-08-14T00:26:49;90581.44;;;16.33;75.42
70046;BME280;57385;41.832;23.494;2022-08-14T00:27:09;90581.66;;;16.37;75.39
70046;BME280;57385;41.832;23.494;2022-08-14T00:27:28;90579.09;;;16.32;75.64
70046;BME280;57385;41.832;23.494;2022-08-14T00:27:48;90575.47;;;16.33;75.43
70046;BME280;57385;41.832;23.494;2022-08-14T00:28:09;90583.47;;;16.36;75.32
70046;BME280;57385;41.832;23.494;2022-08-14T00:28:29;90571.34;;;16.26;75.28
70046;BME280;57385;41.832;23.494;2022-08-14T00:28:50;90570.31;;;16.33;75.30
70046;BME280;57385;41.832;23.494;2022-08-14T00:29:10;90581.44;;;16.33;75.19
70046;BME280;57385;41.832;23.494;2022-08-14T00:29:30;90580.88;;;16.36;75.44
70046;BME280;57385;41.832;23.494;2022-08-14T00:29:49;90574.44;;;16.28;75.54
70046;BME280;57385;41.832;23.494;2022-08-14T00:30:10;90573.16;;;16.31;75.38
70046;BME280;57385;41.832;23.494;2022-08-14T00:30:30;90570.31;;;16.33;75.42
70046;BME280;57385;41.832;23.494;2022-08-14T00:30:50;90578.56;;;16.35;75.33
70046;BME280;57385;41.832;23.494;2022-08-14T00:31:09;90563.88;;;16.25;75.46
70046;BME280;57385;41.832;23.494;2022-08-14T00:31:29;90582.97;;;16.34;75.24
70046;BME280;57385;41.832;23.494;2022-08-14T00:31:48;90577.81;;;16.29;75.33
70046;BME280;57385;41.832;23.494;2022-08-14T00:32:08;90578.06;;;16.33;75.32
70046;BME280;57385;41.832;23.494;2022-08-14T00:32:27;90572.63;;;16.34;75.18
70046;BME280;57385;41.832;23.494;2022-08-14T00:32:47;90575.97;;;16.35;75.30
70046;BME280;57385;41.832;23.494;2022-08-14T00:33:07;90577.25;;;16.37;75.18
70046;BME280;57385;41.832;23.494;2022-08-14T00:33:27;90580.88;;;16.36;75.37
70046;BME280;57385;41.832;23.494;2022-08-14T00:33:47;90575.47;;;16.33;74.93
70046;BME280;57385;41.832;23.494;2022-08-14T00:34:06;90567.19;;;16.30;75.18
70046;BME280;57385;41.832;23.494;2022-08-14T00:34:26;90566.94;;;16.27;75.28
70046;BME280;57385;41.832;23.494;2022-08-14T00:34:45;90586.56;;;16.38;75.11
70046;BME280;57385;41.832;23.494;2022-08-14T00:35:06;90588.88;;;16.40;75.06
70046;BME280;57385;41.832;23.494;2022-08-14T00:35:26;90576.25;;;16.33;75.32
70046;BME280;57385;41.832;23.494;2022-08-14T00:35:45;90571.09;;;16.28;75.31
70046;BME280;57385;41.832;23.494;2022-08-14T00:36:05;90579.34;;;16.35;75.20
70046;BME280;57385;41.832;23.494;2022-08-14T00:36:24;90579.34;;;16.35;75.10
70046;BME280;57385;41.832;23.494;2022-08-14T00:36:44;90570.03;;;16.29;75.26
70046;BME280;57385;41.832;23.494;2022-08-14T00:37:03;90581.88;;;16.40;75.26
70046;BME280;57385;41.832;23.494;2022-08-14T00:37:23;90574.16;;;16.35;75.03
70046;BME280;57385;41.832;23.494;2022-08-14T00:37:44;90581.13;;;16.40;75.31
70046;BME280;57385;41.832;23.494;2022-08-14T00:38:03;90580.66;;;16.33;74.99
70046;BME280;57385;41.832;23.494;2022-08-14T00:38:23;90568.50;;;16.28;74.81
70046;BME280;57385;41.832;23.494;2022-08-14T00:38:42;90567.72;;;16.33;75.00
70046;BME280;57385;41.832;23.494;2022-08-14T00:39:03;90582.19;;;16.34;75.28
70046;BME280;57385;41.832;23.494;2022-08-14T00:39:22;90571.91;;;16.23;75.22
70046;BME280;57385;41.832;23.494;2022-08-14T00:39:42;90580.94;;;16.31;75.58
70046;BME280;57385;41.832;23.494;2022-08-14T00:40:02;90587.38;;;16.34;75.51
70046;BME280;57385;41.832;23.494;2022-08-14T00:40:22;90584.78;;;16.34;75.49
70046;BME280;57385;41.832;23.494;2022-08-14T00:40:42;90577.53;;;16.30;75.44
70046;BME280;57385;41.832;23.494;2022-08-14T00:41:04;90589.69;;;16.35;75.41
70046;BME280;57385;41.832;23.494;2022-08-14T00:41:29;90584.50;;;16.35;75.37
70046;BME280;57385;41.832;23.494;2022-08-14T00:41:49;90572.41;;;16.25;75.35
70046;BME280;57385;41.832;23.494;2022-08-14T00:42:08;90574.19;;;16.30;75.23
70046;BME280;57385;41.832;23.494;2022-08-14T00:42:28;90580.88;;;16.36;75.27
70046;BME280;57385;41.832;23.494;2022-08-14T00:42:48;90576.25;;;16.33;75.39
70046;BME280;57385;41.832;23.494;2022-08-14T00:43:07;90581.94;;;16.30;75.59
70046;BME280;57385;41.832;23.494;2022-08-14T00:43:27;90566.75;;;16.18;75.53
70046;BME280;57385;41.832;23.494;2022-08-14T00:43:46;90584.53;;;16.30;75.62
70046;BME280;57385;41.832;23.494;2022-08-14T00:44:06;90584.53;;;16.30;75.50
70046;BME280;57385;41.832;23.494;2022-08-14T00:44:25;90565.72;;;16.19;75.51
70046;BME280;57385;41.832;23.494;2022-08-14T00:44:45;90561.03;;;16.21;75.77
70046;BME280;57385;41.832;23.494;2022-08-14T00:45:06;90579.59;;;16.34;75.58
70046;BME280;57385;41.832;23.494;2022-08-14T00:45:26;90566.44;;;16.25;75.32
70046;BME280;57385;41.832;23.494;2022-08-14T00:45:45;90581.44;;;16.33;75.63
70046;BME280;57385;41.832;23.494;2022-08-14T00:46:08;90580.88;;;16.36;75.60
70046;BME280;57385;41.832;23.494;2022-08-14T00:46:27;90571.34;;;16.26;75.39
70046;BME280;57385;41.832;23.494;2022-08-14T00:46:47;90565.19;;;16.22;75.58
70046;BME280;57385;41.832;23.494;2022-08-14T00:47:06;90574.22;;;16.25;75.62
70046;BME280;57385;41.832;23.494;2022-08-14T00:47:26;90563.91;;;16.20;75.77
70046;BME280;57385;41.832;23.494;2022-08-14T00:47:47;90574.22;;;16.25;75.58
70046;BME280;57385;41.832;23.494;2022-08-14T00:48:06;90562.59;;;16.22;75.72
70046;BME280;57385;41.832;23.494;2022-08-14T00:48:26;90566.44;;;16.25;75.72
70046;BME280;57385;41.832;23.494;2022-08-14T00:48:45;90577.81;;;16.29;75.73
70046;BME280;57385;41.832;23.494;2022-08-14T00:49:06;90583.75;;;16.29;75.86
70046;BME280;57385;41.832;23.494;2022-08-14T00:49:25;90579.88;;;16.27;75.90
70046;BME280;57385;41.832;23.494;2022-08-14T00:49:45;90577.31;;;16.27;75.96
70046;BME280;57385;41.832;23.494;2022-08-14T00:50:06;90576.75;;;16.30;75.66
70046;BME280;57385;41.832;23.494;2022-08-14T00:50:27;90577.53;;;16.30;75.95
70046;BME280;57385;41.832;23.494;2022-08-14T00:50:46;90567.50;;;16.24;75.94
70046;BME280;57385;41.832;23.494;2022-08-14T00:51:07;90578.06;;;16.33;75.82
70046;BME280;57385;41.832;23.494;2022-08-14T00:51:27;90565.41;;;16.26;75.51
70046;BME280;57385;41.832;23.494;2022-08-14T00:51:47;90574.72;;;16.32;75.81
70046;BME280;57385;41.832;23.494;2022-08-14T00:52:06;90571.59;;;16.30;75.77
70046;BME280;57385;41.832;23.494;2022-08-14T00:52:26;90570.59;;;16.26;75.90
70046;BME280;57385;41.832;23.494;2022-08-14T00:52:47;90574.44;;;16.34;75.75
70046;BME280;57385;41.832;23.494;2022-08-14T00:53:07;90555.59;;;16.23;75.86
70046;BME280;57385;41.832;23.494;2022-08-14T00:53:26;90573.16;;;16.31;75.78
70046;BME280;57385;41.832;23.494;2022-08-14T00:53:46;90570.56;;;16.31;75.48
70046;BME280;57385;41.832;23.494;2022-08-14T00:54:06;90562.06;;;16.25;75.86
70046;BME280;57385;41.832;23.494;2022-08-14T00:54:26;90575.47;;;16.33;75.72
70046;BME280;57385;41.832;23.494;2022-08-14T00:54:48;90567.44;;;16.34;75.78
70046;BME280;57385;41.832;23.494;2022-08-14T00:55:08;90556.88;;;16.25;75.76
70046;BME280;57385;41.832;23.494;2022-08-14T00:55:28;90575.22;;;16.34;75.78
70046;BME280;57385;41.832;23.494;2022-08-14T00:55:49;90569.00;;;16.35;75.74
70046;BME280;57385;41.832;23.494;2022-08-14T00:56:09;90569.75;;;16.36;75.47
70046;BME280;57385;41.832;23.494;2022-08-14T00:56:29;90566.94;;;16.32;75.69
70046;BME280;57385;41.832;23.494;2022-08-14T00:56:50;90572.63;;;16.34;75.82
70046;BME280;57385;41.832;23.494;2022-08-14T00:57:10;90567.97;;;16.31;75.63
70046;BME280;57385;41.832;23.494;2022-08-14T00:57:32;90563.03;;;16.35;75.75
70046;BME280;57385;41.832;23.494;2022-08-14T00:57:53;90562.81;;;16.31;75.66
70046;BME280;57385;41.832;23.494;2022-08-14T00:58:12;90558.16;;;16.28;75.64
70046;BME280;57385;41.832;23.494;2022-08-14T00:58:32;90574.72;;;16.32;75.79
70046;BME280;57385;41.832;23.494;2022-08-14T00:58:52;90568.50;;;16.33;75.70
70046;BME280;57385;41.832;23.494;2022-08-14T00:59:11;90559.97;;;16.27;75.77
70046;BME280;57385;41.832;23.494;2022-08-14T00:59:31;90559.41;;;16.30;75.58
70046;BME280;57385;41.832;23.494;2022-08-14T00:59:50;90551.94;;;16.29;75.81
70046;BME280;57385;41.832;23.494;2022-08-14T01:00:13;90569.53;;;16.32;75.52
70046;BME280;57385;41.832;23.494;2022-08-14T01:00:34;90566.66;;;16.34;75.69
70046;BME280;57385;41.832;23.494;2022-08-14T01:00:53;90562.81;;;16.31;75.54
70046;BME280;57385;41.832;23.494;2022-08-14T01:01:13;90546.53;;;16.25;75.69
70046;BME280;57385;41.832;23.494;2022-08-14T01:01:33;90569.25;;;16.34;75.96
70046;BME280;57385;41.832;23.494;2022-08-14T01:01:57;90564.09;;;16.28;75.92
70046;BME280;57385;41.832;23.494;2022-08-14T01:02:19;90563.59;;;16.32;75.52
70046;BME280;57385;41.832;23.494;2022-08-14T01:02:43;90563.59;;;16.32;75.79
70046;BME280;57385;41.832;23.494;2022-08-14T01:03:04;90568.22;;;16.35;75.66
70046;BME280;57385;41.832;23.494;2022-08-14T01:03:25;90551.44;;;16.27;75.56
70046;BME280;57385;41.832;23.494;2022-08-14T01:03:45;90558.16;;;16.28;75.52
70046;BME280;57385;41.832;23.494;2022-08-14T01:04:05;90560.25;;;16.26;75.57
70046;BME280;57385;41.832;23.494;2022-08-14T01:04:25;90554.53;;;16.29;75.39
70046;BME280;57385;41.832;23.494;2022-08-14T01:04:45;90562.53;;;16.33;75.74
70046;BME280;57385;41.832;23.494;2022-08-14T01:05:05;90561.50;;;16.34;75.77
70046;BME280;57385;41.832;23.494;2022-08-14T01:05:25;90553.50;;;16.25;75.47
70046;BME280;57385;41.832;23.494;2022-08-14T01:05:48;90561.00;;;16.32;75.65
70046;BME280;57385;41.832;23.494;2022-08-14T01:06:10;90545.25;;;16.23;75.50
70046;BME280;57385;41.832;23.494;2022-08-14T01:06:30;90563.31;;;16.33;75.53
70046;BME280;57385;41.832;23.494;2022-08-14T01:06:50;90564.59;;;16.36;75.74
70046;BME280;57385;41.832;23.494;2022-08-14T01:07:10;90555.53;;;16.33;75.62
70046;BME280;57385;41.832;23.494;2022-08-14T01:07:30;90555.06;;;16.26;75.55
70046;BME280;57385;41.832;23.494;2022-08-14T01:07:51;90560.22;;;16.31;75.72
70046;BME280;57385;41.832;23.494;2022-08-14T01:08:11;90545.25;;;16.23;75.74
70046;BME280;57385;41.832;23.494;2022-08-14T01:08:30;90556.06;;;16.30;75.82
70046;BME280;57385;41.832;23.494;2022-08-14T01:08:50;90558.66;;;16.30;75.60
70046;BME280;57385;41.832;23.494;2022-08-14T01:09:10;90555.84;;;16.26;75.50
70046;BME280;57385;41.832;23.494;2022-08-14T01:09:30;90545.47;;;16.26;75.64
70046;BME280;57385;41.832;23.494;2022-08-14T01:09:57;90561.78;;;16.32;75.62
70046;BME280;57385;41.832;23.494;2022-08-14T01:10:17;90558.13;;;16.33;75.35
70046;BME280;57385;41.832;23.494;2022-08-14T01:10:37;90544.97;;;16.24;75.62
70046;BME280;57385;41.832;23.494;2022-08-14T01:10:57;90550.38;;;16.33;75.78
70046;BME280;57385;41.832;23.494;2022-08-14T01:11:17;90550.66;;;16.26;75.47
70046;BME280;57385;41.832;23.494;2022-08-14T01:11:37;90541.38;;;16.20;75.77
70046;BME280;57385;41.832;23.494;2022-08-14T01:11:57;90548.84;;;16.27;75.67
70046;BME280;57385;41.832;23.494;2022-08-14T01:12:18;90539.06;;;16.19;75.81
70046;BME280;57385;41.832;23.494;2022-08-14T01:12:38;90543.97;;;16.20;75.68
70046;BME280;57385;41.832;23.494;2022-08-14T01:12:58;90538.03;;;16.15;75.74
70046;BME280;57385;41.832;23.494;2022-08-14T01:13:30;90555.56;;;16.28;75.67
70046;BME280;57385;41.832;23.494;2022-08-14T01:13:49;90537.53;;;16.18;75.63
70046;BME280;57385;41.832;23.494;2022-08-14T01:14:09;90545.78;;;16.20;75.81
70046;BME280;57385;41.832;23.494;2022-08-14T01:14:29;90544.53;;;16.17;75.69
70046;BME280;57385;41.832;23.494;2022-08-14T01:14:48;90548.88;;;16.22;75.58
70046;BME280;57385;41.832;23.494;2022-08-14T01:15:08;90554.78;;;16.27;75.66
70046;BME280;57385;41.832;23.494;2022-08-14T01:15:28;90558.91;;;16.28;75.67
70046;BME280;57385;41.832;23.494;2022-08-14T01:15:53;90535.97;;;16.17;75.58
70046;BME280;57385;41.832;23.494;2022-08-14T01:16:14;90548.84;;;16.27;75.74
70046;BME280;57385;41.832;23.494;2022-08-14T01:16:34;90545.25;;;16.23;75.57
70046;BME280;57385;41.832;23.494;2022-08-14T01:16:53;90547.34;;;16.21;75.86
70046;BME280;57385;41.832;23.494;2022-08-14T01:17:13;90542.44;;;16.14;76.32
70046;BME280;57385;41.832;23.494;2022-08-14T01:17:33;90539.13;;;16.09;76.45
70046;BME280;57385;41.832;23.494;2022-08-14T01:17:52;90538.84;;;16.10;76.63
70046;BME280;57385;41.832;23.494;2022-08-14T01:18:11;90543.00;;;16.11;76.67
70046;BME280;57385;41.832;23.494;2022-08-14T01:18:31;90550.97;;;16.15;76.34
70046;BME280;57385;41.832;23.494;2022-08-14T01:18:52;90546.06;;;16.13;76.16
70046;BME280;57385;41.832;23.494;2022-08-14T01:19:12;90544.56;;;16.07;76.42
70046;BME280;57385;41.832;23.494;2022-08-14T01:19:32;90530.88;;;16.02;76.30
70046;BME280;57385;41.832;23.494;2022-08-14T01:19:51;90525.19;;;15.99;76.49
70046;BME280;57385;41.832;23.494;2022-08-14T01:20:11;90545.88;;;16.05;76.40
70046;BME280;57385;41.832;23.494;2022-08-14T01:20:31;90534.22;;;16.02;76.50
70046;BME280;57385;41.832;23.494;2022-08-14T01:20:52;90538.66;;;15.96;76.36
70046;BME280;57385;41.832;23.494;2022-08-14T01:21:12;90547.16;;;16.07;76.38
70046;BME280;57385;41.832;23.494;2022-08-14T01:21:35;90554.97;;;15.97;76.42
70046;BME280;57385;41.832;23.494;2022-08-14T01:21:55;90546.47;;;15.91;76.43
70046;BME280;57385;41.832;23.494;2022-08-14T01:22:15;90538.72;;;15.86;76.82
70046;BME280;57385;41.832;23.494;2022-08-14T01:22:34;90541.56;;;15.90;76.71
70046;BME280;57385;41.832;23.494;2022-08-14T01:22:54;90540.00;;;15.89;76.73
70046;BME280;57385;41.832;23.494;2022-08-14T01:23:14;90540.25;;;15.87;76.71
70046;BME280;57385;41.832;23.494;2022-08-14T01:23:35;90540.00;;;15.89;76.79
70046;BME280;57385;41.832;23.494;2022-08-14T01:23:56;90548.53;;;15.89;76.50
70046;BME280;57385;41.832;23.494;2022-08-14T01:24:15;90549.06;;;15.91;76.84
70046;BME280;57385;41.832;23.494;2022-08-14T01:24:35;90541.81;;;15.88;76.72
70046;BME280;57385;41.832;23.494;2022-08-14T01:24:54;90532.53;;;15.82;76.73
70046;BME280;57385;41.832;23.494;2022-08-14T01:25:13;90535.94;;;15.78;76.89
70046;BME280;57385;41.832;23.494;2022-08-14T01:25:33;90546.56;;;15.61;77.52
70046;BME280;57385;41.832;23.494;2022-08-14T01:25:52;90549.16;;;15.61;77.74
70046;BME280;57385;41.832;23.494;2022-08-14T01:26:13;90539.34;;;15.63;77.93
70046;BME280;57385;41.832;23.494;2022-08-14T01:26:34;90556.91;;;15.61;78.20
70046;BME280;57385;41.832;23.494;2022-08-14T01:26:53;90537.03;;;15.46;78.32
70046;BME280;57385;41.832;23.494;2022-08-14T01:27:14;90561.53;;;15.59;78.19
70046;BME280;57385;41.832;23.494;2022-08-14T01:27:34;90547.59;;;15.55;78.30
70046;BME280;57385;41.832;23.494;2022-08-14T01:27:54;90532.13;;;15.45;78.17
70046;BME280;57385;41.832;23.494;2022-08-14T01:28:13;90544.53;;;15.53;78.11
70046;BME280;57385;41.832;23.494;2022-08-14T01:28:33;90552.00;;;15.64;77.80
70046;BME280;57385;41.832;23.494;2022-08-14T01:28:55;90545.78;;;15.60;78.11
70046;BME280;57385;41.832;23.494;2022-08-14T01:29:16;90541.41;;;15.61;78.03
70046;BME280;57385;41.832;23.494;2022-08-14T01:29:36;90538.31;;;15.54;78.32
70046;BME280;57385;41.832;23.494;2022-08-14T01:29:56;90543.44;;;15.59;77.82
70046;BME280;57385;41.832;23.494;2022-08-14T01:30:16;90541.41;;;15.56;77.88
70046;BME280;57385;41.832;23.494;2022-08-14T01:30:36;90538.81;;;15.56;77.91
70046;BME280;57385;41.832;23.494;2022-08-14T01:30:59;90561.03;;;15.67;77.88
70046;BME280;57385;41.832;23.494;2022-08-14T01:31:18;90552.78;;;15.65;78.07
70046;BME280;57385;41.832;23.494;2022-08-14T01:31:39;90558.69;;;15.70;77.87
70046;BME280;57385;41.832;23.494;2022-08-14T01:31:58;90537.28;;;15.55;78.19
70046;BME280;57385;41.832;23.494;2022-08-14T01:32:19;90556.13;;;15.65;77.82
70046;BME280;57385;41.832;23.494;2022-08-14T01:32:39;90554.81;;;15.68;77.71
70046;BME280;57385;41.832;23.494;2022-08-14T01:32:58;90549.16;;;15.66;77.55
70046;BME280;57385;41.832;23.494;2022-08-14T01:33:18;90550.66;;;15.72;77.99
70046;BME280;57385;41.832;23.494;2022-08-14T01:33:38;90561.25;;;15.76;77.65
70046;BME280;57385;41.832;23.494;2022-08-14T01:34:01;90553.25;;;15.77;77.50
70046;BME280;57385;41.832;23.494;2022-08-14T01:34:21;90543.22;;;15.65;77.75
70046;BME280;57385;41.832;23.494;2022-08-14T01:34:40;90549.38;;;15.75;77.39
70046;BME280;57385;41.832;23.494;2022-08-14T01:35:00;90538.78;;;15.71;77.59
70046;BME280;57385;41.832;23.494;2022-08-14T01:35:19;90533.09;;;15.69;77.46
70046;BME280;57385;41.832;23.494;2022-08-14T01:35:39;90534.91;;;15.68;77.68
70046;BME280;57385;41.832;23.494;2022-08-14T01:35:59;90550.63;;;15.82;77.74
70046;BME280;57385;41.832;23.494;2022-08-14T01:36:19;90547.53;;;15.80;77.24
70046;BME280;57385;41.832;23.494;2022-08-14T01:36:38;90542.13;;;15.77;77.25
70046;BME280;57385;41.832;23.494;2022-08-14T01:37:00;90550.38;;;15.84;77.63
70046;BME280;57385;41.832;23.494;2022-08-14T01:37:21;90549.81;;;15.87;77.44
70046;BME280;57385;41.832;23.494;2022-08-14T01:37:43;90535.66;;;15.79;77.26
70046;BME280;57385;41.832;23.494;2022-08-14T01:38:03;90536.66;;;15.83;77.32
70046;BME280;57385;41.832;23.494;2022-08-14T01:38:23;90547.25;;;15.87;77.40
70046;BME280;57385;41.832;23.494;2022-08-14T01:38:44;90556.81;;;15.91;77.26
70046;BME280;57385;41.832;23.494;2022-08-14T01:39:11;90550.88;;;15.91;77.35
70046;BME280;57385;41.832;23.494;2022-08-14T01:39:31;90548.78;;;15.93;77.00
70046;BME280;57385;41.832;23.494;2022-08-14T01:39:51;90549.28;;;15.95;77.10
70046;BME280;57385;41.832;23.494;2022-08-14T01:40:11;90553.69;;;15.94;77.42
70046;BME280;57385;41.832;23.494;2022-08-14T01:40:30;90544.66;;;15.92;77.27
70046;BME280;57385;41.832;23.494;2022-08-14T01:40:50;90550.06;;;15.95;76.96
70046;BME280;57385;41.832;23.494;2022-08-14T01:41:12;90554.19;;;15.96;77.03
70046;BME280;57385;41.832;23.494;2022-08-14T01:41:33;90553.69;;;15.94;76.99
70046;BME280;57385;41.832;23.494;2022-08-14T01:41:52;90543.59;;;15.93;76.95
70046;BME280;57385;41.832;23.494;2022-08-14T01:42:12;90552.66;;;15.95;77.03
70046;BME280;57385;41.832;23.494;2022-08-14T01:42:31;90542.84;;;15.92;77.07
70046;BME280;57385;41.832;23.494;2022-08-14T01:42:51;90552.38;;;15.97;77.03
70046;BME280;57385;41.832;23.494;2022-08-14T01:43:12;90544.38;;;15.93;77.10
70046;BME280;57385;41.832;23.494;2022-08-14T01:43:32;90544.88;;;15.95;77.06
70046;BME280;57385;41.832;23.494;2022-08-14T01:43:58;90550.78;;;16.01;76.93
70046;BME280;57385;41.832;23.494;2022-08-14T01:44:18;90539.72;;;15.95;76.96
70046;BME280;57385;41.832;23.494;2022-08-14T01:44:37;90547.72;;;15.99;77.09
70046;BME280;57385;41.832;23.494;2022-08-14T01:44:57;90544.63;;;15.97;76.84
70046;BME280;57385;41.832;23.494;2022-08-14T01:45:17;90533.75;;;15.95;76.69
70046;BME280;57385;41.832;23.494;2022-08-14T01:45:36;90540.72;;;15.99;76.90
70046;BME280;57385;41.832;23.494;2022-08-14T01:45:57;90545.09;;;16.04;76.88